»·PEaware :: N103MR CYVR-KSEA

N103MR :: CYVR-KSEA

FLIGHT INFORMATION

Flight Status: Arrived
Operator: Privately registered:
United States
More flights under this callsign
Pilot: Michael R. (16974)
Aircraft: BEECH AIRCRAFT BARON
(BE58)
More flights by this aircraft type
Origin: CYVR Vancouver Intl
Canada
Destination: KSEA Seattle-Tacoma Intl
United States
More flights between these airports :: More routes between these airports
Route: +YVR V338 CONDI V495 LOFAL
File this flight plan on PilotEdge
Remarks:
Altitude:
(Current/Filed)
7,500ft
Speed:
(Current/Filed)
160kts
Departed: 22-Dec-17 11:13 AM
Arrived: 22-Dec-17 12:00 PM
Distance/Time
Traveled:
111nm/0:47
Distance/Time
To Go:
Arrived

Flight Plot

Page will automatically refresh every two minutes.

Flight plan parsing failed; only flown route is shown


Map Options




Map Legend


Flown Route
Filed Route
Departure Airport
Arrival Airport
Navaid (VOR, NDB)
Fix

Horizontal Profiles

Position Reports

Time Latitude Longitude Heading Altitude Ground
Speed
22-Dec-17 11:08 49.190432 -123.178208 70 13ft 0kts
22-Dec-17 11:09 49.190432 -123.178208 70 13ft 0kts
22-Dec-17 11:10 49.190432 -123.178208 70 13ft 0kts
22-Dec-17 11:11 49.190432 -123.178208 70 13ft 0kts
22-Dec-17 11:12 49.190432 -123.178208 70 13ft 0kts
22-Dec-17 11:13 49.190432 -123.178208 70 13ft 0kts
22-Dec-17 11:14 49.190432 -123.178208 70 13ft 0kts
22-Dec-17 11:15 49.189493 -123.180363 189 13ft 20kts
22-Dec-17 11:16 49.187942 -123.171015 103 10ft 26kts
22-Dec-17 11:17 49.186215 -123.161877 161 10ft 16kts
22-Dec-17 11:18 49.184978 -123.163429 279 10ft 0kts
22-Dec-17 11:19 49.186299 -123.176027 277 133ft 110kts
22-Dec-17 11:20 49.188097 -123.221366 249 1421ft 116kts
22-Dec-17 11:21 49.160375 -123.233515 169 2405ft 122kts
22-Dec-17 11:22 49.127423 -123.213561 145 3244ft 133kts
22-Dec-17 11:23 49.095453 -123.184124 146 4072ft 135kts
22-Dec-17 11:24 49.063185 -123.155329 170 4908ft 136kts
22-Dec-17 11:25 49.026286 -123.168583 194 5634ft 138kts
22-Dec-17 11:26 48.989098 -123.183756 195 6306ft 140kts
22-Dec-17 11:27 48.951460 -123.198169 195 6950ft 139kts
22-Dec-17 11:28 48.913744 -123.212299 195 7504ft 144kts
22-Dec-17 11:29 48.872933 -123.227550 195 7491ft 160kts
22-Dec-17 11:30 48.828847 -123.243948 195 7249ft 173kts
22-Dec-17 11:31 48.782289 -123.261198 195 7016ft 166kts
22-Dec-17 11:32 48.739214 -123.277082 196 7024ft 152kts
22-Dec-17 11:33 48.698195 -123.292250 196 7027ft 151kts
22-Dec-17 11:34 48.657524 -123.307258 196 7027ft 150kts
22-Dec-17 11:35 48.613516 -123.323527 196 7030ft 178kts
22-Dec-17 11:36 48.564283 -123.329393 152 7033ft 189kts
22-Dec-17 11:37 48.524910 -123.294143 149 7025ft 192kts
22-Dec-17 11:38 48.479277 -123.251711 148 7025ft 193kts
22-Dec-17 11:39 48.433813 -123.209384 148 7018ft 193kts
22-Dec-17 11:40 48.387767 -123.167104 149 7017ft 194kts
22-Dec-17 11:41 48.341455 -123.126107 148 7020ft 194kts
22-Dec-17 11:42 48.295417 -123.083822 148 7017ft 194kts
22-Dec-17 11:43 48.249492 -123.041687 148 7025ft 194kts
22-Dec-17 11:44 48.202652 -122.998754 150 7020ft 201kts
22-Dec-17 11:45 48.154584 -122.954937 150 7020ft 203kts
22-Dec-17 11:46 48.107341 -122.911873 150 7018ft 193kts
22-Dec-17 11:47 48.069808 -122.877680 151 7028ft 187kts
22-Dec-17 11:48 48.018648 -122.831281 152 7029ft 183kts
22-Dec-17 11:49 47.975265 -122.792006 152 7029ft 182kts
22-Dec-17 11:50 47.939244 -122.759447 152 7029ft 181kts
22-Dec-17 11:51 47.891570 -122.716436 151 7026ft 173kts
22-Dec-17 11:52 47.857913 -122.686176 151 6585ft 181kts
22-Dec-17 11:53 47.809347 -122.641149 150 5542ft 174kts
22-Dec-17 11:54 47.778003 -122.611864 150 5007ft 162kts
22-Dec-17 11:55 47.738750 -122.575113 150 5020ft 172kts
22-Dec-17 11:56 47.708801 -122.523940 91 5032ft 175kts
22-Dec-17 11:57 47.704314 -122.453382 92 4903ft 171kts
22-Dec-17 11:58 47.699386 -122.386517 92 4012ft 131kts
22-Dec-17 11:59 47.678371 -122.338352 157 4057ft 176kts
22-Dec-17 12:00 47.637236 -122.317508 181 4034ft 134kts
22-Dec-17 12:01 47.590909 -122.317816 180 3449ft 212kts
22-Dec-17 12:02 47.542032 -122.317086 181 1975ft 119kts
22-Dec-17 12:03 47.510210 -122.317398 181 1314ft 112kts
22-Dec-17 12:04 47.481384 -122.317641 180 742ft 101kts
22-Dec-17 12:05 47.454885 -122.317923 180 340ft 59kts
22-Dec-17 12:06 47.448125 -122.316844 150 369ft 0kts
22-Dec-17 12:07 47.447587 -122.316387 147 370ft 17kts
22-Dec-17 12:08 47.443743 -122.313624 169 368ft 16kts
22-Dec-17 12:09 47.438816 -122.314780 272 347ft 12kts
22-Dec-17 12:10 47.439224 -122.315164 66 348ft 0kts
22-Dec-17 12:11 47.439224 -122.315164 66 348ft 0kts
22-Dec-17 12:12 47.439224 -122.315164 66 348ft 0kts
22-Dec-17 12:13 47.439224 -122.315164 66 348ft 0kts
22-Dec-17 12:14 47.439224 -122.315164 66 348ft 0kts
22-Dec-17 12:15 47.439224 -122.315164 66 348ft 0kts
22-Dec-17 12:16 47.439224 -122.315164 66 348ft 0kts
22-Dec-17 12:17 47.439224 -122.315164 66 348ft 0kts
22-Dec-17 12:18 47.439224 -122.315164 66 348ft 0kts
22-Dec-17 12:19 47.439224 -122.315164 66 348ft 0kts
22-Dec-17 12:20 47.439224 -122.315164 66 348ft 0kts
22-Dec-17 12:21 47.439224 -122.315164 66 348ft 0kts

Navigation Log

Ident Type
Flight plan parsing failed, navigation log unavailable